createdAt,value
2018-12-27T00:00:48.672Z,63.23
2018-12-27T00:03:19.751Z,51.17
2018-12-27T00:05:49.972Z,60.43
2018-12-27T00:08:19.851Z,65.73
2018-12-27T00:10:50.105Z,63.10
2018-12-27T00:13:19.998Z,50.77
2018-12-27T00:15:50.063Z,49.37
2018-12-27T00:18:19.932Z,56.70
2018-12-27T00:20:49.813Z,53.63
2018-12-27T00:23:19.708Z,57.33
2018-12-27T00:25:49.947Z,54.27
2018-12-27T00:28:19.831Z,54.27
2018-12-27T00:30:50.343Z,49.53
2018-12-27T00:33:20.583Z,45.20
2018-12-27T00:35:50.927Z,51.23
2018-12-27T00:38:21.152Z,61.47
2018-12-27T00:40:51.987Z,53.40
2018-12-27T00:43:22.229Z,64.83
2018-12-27T00:45:52.536Z,62.17
2018-12-27T00:48:22.752Z,48.50
2018-12-27T00:50:53.313Z,52.23
2018-12-27T00:53:23.536Z,60.50
2018-12-27T00:55:56.868Z,56.77
2018-12-27T00:58:27.629Z,58.23
2018-12-27T01:00:57.954Z,50.30
2018-12-27T01:03:28.213Z,50.23
2018-12-27T01:05:58.409Z,44.63
2018-12-27T01:08:28.652Z,52.17
2018-12-27T01:10:58.964Z,51.47
2018-12-27T01:13:29.230Z,55.80
2018-12-27T01:15:59.466Z,48.37
2018-12-27T01:18:29.680Z,48.97
2018-12-27T01:20:59.900Z,51.43
2018-12-27T01:23:31.017Z,47.70
2018-12-27T01:26:01.241Z,50.83
2018-12-27T01:28:31.490Z,43.97
2018-12-27T01:31:03.486Z,49.43
2018-12-27T01:33:33.657Z,46.00
2018-12-27T01:36:03.953Z,45.53
2018-12-27T01:38:34.233Z,49.13
2018-12-27T01:41:04.426Z,50.53
2018-12-27T01:43:34.655Z,52.30
2018-12-27T01:46:04.888Z,52.70
2018-12-27T01:48:35.110Z,48.60
2018-12-27T01:51:05.495Z,47.10
2018-12-27T01:53:35.684Z,51.77
2018-12-27T01:56:05.925Z,54.37
2018-12-27T01:58:36.467Z,50.80
2018-12-27T02:01:06.677Z,44.77
2018-12-27T02:03:36.877Z,39.70
2018-12-27T02:06:07.461Z,43.57
2018-12-27T02:08:37.701Z,41.60
2018-12-27T02:11:07.922Z,44.13
2018-12-27T02:13:38.266Z,44.60
2018-12-27T02:16:08.587Z,54.80
2018-12-27T02:18:38.826Z,52.03
2018-12-27T02:21:09.083Z,48.40
2018-12-27T02:23:39.707Z,43.20
2018-12-27T02:26:09.993Z,49.53
2018-12-27T02:28:40.218Z,49.27
2018-12-27T02:31:10.522Z,44.33
2018-12-27T02:33:40.791Z,45.33
2018-12-27T02:36:11.066Z,47.13
2018-12-27T02:38:41.558Z,46.93
2018-12-27T02:41:11.761Z,42.33
2018-12-27T02:43:42.037Z,51.57
2018-12-27T02:46:12.242Z,42.60
2018-12-27T02:48:42.748Z,48.00
2018-12-27T02:51:13.118Z,50.67
2018-12-27T02:53:43.613Z,48.33
2018-12-27T02:56:13.878Z,43.87
2018-12-27T02:58:44.082Z,50.77
2018-12-27T03:01:14.298Z,51.10
2018-12-27T03:03:44.506Z,56.43
2018-12-27T03:06:14.704Z,48.20
2018-12-27T03:08:44.893Z,51.73
2018-12-27T03:11:15.859Z,51.23
2018-12-27T03:13:46.416Z,50.67
2018-12-27T03:16:16.640Z,49.30
2018-12-27T03:18:46.835Z,45.33
2018-12-27T03:21:17.033Z,46.60
2018-12-27T03:23:47.223Z,47.10
2018-12-27T03:26:17.473Z,46.37
2018-12-27T03:28:47.669Z,46.43
2018-12-27T03:31:17.897Z,53.73
2018-12-27T03:33:52.693Z,48.30
2018-12-27T03:36:19.932Z,54.80
2018-12-27T03:38:50.140Z,53.80
2018-12-27T03:41:20.341Z,44.73
2018-12-27T03:43:50.565Z,46.60
2018-12-27T03:46:20.771Z,44.77
2018-12-27T03:48:51.261Z,49.77
2018-12-27T03:51:21.508Z,43.80
2018-12-27T03:53:52.055Z,49.80
2018-12-27T03:56:22.665Z,43.37
2018-12-27T03:58:52.872Z,45.20
2018-12-27T04:01:23.129Z,45.27
2018-12-27T04:04:01.033Z,45.77
2018-12-27T04:06:25.169Z,45.27
2018-12-27T04:08:55.468Z,48.50
2018-12-27T04:11:25.709Z,44.77
2018-12-27T04:13:55.900Z,45.97
2018-12-27T04:16:25.941Z,45.90
2018-12-27T04:18:55.993Z,44.03
2018-12-27T04:21:25.968Z,48.93
2018-12-27T04:23:56.205Z,44.70
2018-12-27T04:26:26.405Z,51.63
2018-12-27T04:28:56.431Z,46.50
2018-12-27T04:31:26.275Z,48.47
2018-12-27T04:33:57.134Z,42.27
2018-12-27T04:36:27.154Z,48.87
2018-12-27T04:38:57.020Z,49.30
2018-12-27T04:41:26.912Z,44.63
2018-12-27T04:43:56.804Z,47.50
2018-12-27T04:46:26.842Z,59.20
2018-12-27T04:48:56.823Z,46.50
2018-12-27T04:51:26.684Z,50.80
2018-12-27T04:53:56.633Z,50.40
2018-12-27T04:56:26.664Z,47.90
2018-12-27T04:58:56.647Z,40.80
2018-12-27T05:01:26.959Z,50.17
2018-12-27T05:03:58.119Z,48.67
2018-12-27T05:06:28.007Z,54.70
2018-12-27T05:08:58.871Z,54.90
2018-12-27T05:11:29.228Z,55.30
2018-12-27T05:13:59.106Z,56.87
2018-12-27T05:16:29.063Z,54.70
2018-12-27T05:18:59.016Z,57.67
2018-12-27T05:21:29.082Z,49.73
2018-12-27T05:23:58.987Z,60.00
2018-12-27T05:26:28.909Z,53.43
2018-12-27T05:28:59.138Z,55.37
2018-12-27T05:31:28.993Z,49.60
2018-12-27T05:34:00.689Z,55.47
2018-12-27T05:36:30.566Z,47.90
2018-12-27T05:39:00.436Z,49.63
2018-12-27T05:41:30.366Z,45.73
2018-12-27T05:44:00.349Z,49.50
2018-12-27T05:46:30.231Z,44.23
2018-12-27T05:49:00.102Z,54.13
2018-12-27T05:51:30.029Z,52.47
2018-12-27T05:54:00.095Z,53.60
2018-12-27T05:56:30.333Z,57.50
2018-12-27T05:59:00.224Z,45.20
2018-12-27T06:01:30.065Z,40.23
2018-12-27T06:04:01.023Z,53.97
2018-12-27T06:06:30.866Z,48.63
2018-12-27T06:09:00.833Z,46.53
2018-12-27T06:11:30.677Z,45.10
2018-12-27T06:14:00.568Z,42.43
2018-12-27T06:16:30.501Z,44.77
2018-12-27T06:19:00.761Z,46.67
2018-12-27T06:21:30.973Z,47.07
2018-12-27T06:24:00.857Z,46.70
2018-12-27T06:26:30.743Z,48.83
2018-12-27T06:29:00.655Z,55.80
2018-12-27T06:31:30.500Z,59.07
2018-12-27T06:34:00.397Z,54.80
2018-12-27T06:36:30.295Z,65.33
2018-12-27T06:39:00.163Z,60.83
2018-12-27T06:41:30.028Z,58.43
2018-12-27T06:43:59.896Z,53.10
2018-12-27T06:46:29.833Z,52.20
2018-12-27T06:49:00.232Z,57.10
2018-12-27T06:51:30.520Z,51.17
2018-12-27T06:54:00.720Z,57.03
2018-12-27T06:56:30.649Z,51.47
2018-12-27T06:59:00.489Z,53.80
2018-12-27T07:01:30.385Z,45.13
2018-12-27T07:04:00.240Z,49.50
2018-12-27T07:06:30.118Z,55.43
2018-12-27T07:08:59.959Z,56.87
2018-12-27T07:11:29.851Z,44.93
2018-12-27T07:13:59.692Z,40.87
2018-12-27T07:16:29.869Z,40.77
2018-12-27T07:18:59.736Z,46.10
2018-12-27T07:21:29.997Z,43.30
2018-12-27T07:23:59.856Z,48.13
2018-12-27T07:26:29.765Z,47.00
2018-12-27T07:28:59.613Z,49.70
2018-12-27T07:31:29.641Z,48.07
2018-12-27T07:33:59.503Z,44.23
2018-12-27T07:36:29.826Z,51.60
2018-12-27T07:38:59.714Z,56.73
2018-12-27T07:41:30.188Z,49.10
2018-12-27T07:44:00.059Z,55.53
2018-12-27T07:46:30.196Z,46.47
2018-12-27T07:49:00.861Z,54.40
2018-12-27T07:51:30.748Z,45.57
2018-12-27T07:54:00.895Z,42.33
2018-12-27T07:56:33.699Z,48.17
2018-12-27T07:59:03.541Z,50.00
2018-12-27T08:01:34.109Z,46.20
2018-12-27T08:04:04.213Z,39.80
2018-12-27T08:06:34.382Z,41.97
2018-12-27T08:09:05.665Z,43.23
2018-12-27T08:11:35.961Z,39.57
2018-12-27T08:14:06.191Z,39.60
2018-12-27T08:16:36.321Z,44.17
2018-12-27T08:19:06.187Z,41.53
2018-12-27T08:21:37.653Z,44.43
2018-12-27T08:24:08.175Z,37.60
2018-12-27T08:26:39.013Z,38.80
2018-12-27T08:29:08.865Z,37.47
2018-12-27T08:31:38.848Z,38.23
2018-12-27T08:34:08.737Z,40.93
2018-12-27T08:36:38.806Z,42.67
2018-12-27T08:39:09.079Z,36.63
2018-12-27T08:41:39.492Z,36.07
2018-12-27T08:44:22.376Z,33.43
2018-12-27T08:46:52.505Z,35.57
2018-12-27T08:49:22.568Z,32.83
2018-12-27T08:51:52.909Z,30.77
2018-12-27T08:54:23.689Z,35.93
2018-12-27T08:56:53.586Z,36.87
2018-12-27T08:59:23.808Z,33.13
2018-12-27T09:01:53.776Z,39.57
2018-12-27T09:04:23.633Z,34.70
2018-12-27T09:06:53.561Z,37.13
2018-12-27T09:09:23.440Z,33.87
2018-12-27T09:11:53.324Z,35.03
2018-12-27T09:14:23.555Z,34.70
2018-12-27T09:16:53.433Z,32.50
2018-12-27T09:19:23.288Z,35.50
2018-12-27T09:21:53.158Z,32.63
2018-12-27T09:24:23.084Z,37.23
2018-12-27T09:26:52.975Z,32.30
2018-12-27T09:29:23.505Z,34.10
2018-12-27T09:31:53.391Z,35.63
2018-12-27T09:34:23.475Z,38.47
2018-12-27T09:36:53.346Z,36.47
2018-12-27T09:39:24.386Z,38.13
2018-12-27T09:41:54.381Z,33.20
2018-12-27T09:44:25.186Z,33.43
2018-12-27T09:46:55.212Z,33.33
2018-12-27T09:49:25.199Z,32.40
2018-12-27T09:52:01.878Z,30.40
2018-12-27T09:54:26.655Z,33.40
2018-12-27T09:56:56.562Z,34.20
2018-12-27T09:59:26.453Z,31.23
2018-12-27T10:01:56.316Z,36.53
2018-12-27T10:04:26.206Z,30.87
2018-12-27T10:06:56.061Z,38.50
2018-12-27T10:09:25.946Z,35.10
2018-12-27T10:11:56.552Z,33.23
2018-12-27T10:14:26.422Z,30.20
2018-12-27T10:16:56.365Z,32.03
2018-12-27T10:19:26.259Z,27.90
2018-12-27T10:21:56.105Z,34.37
2018-12-27T10:24:25.973Z,32.87
2018-12-27T10:26:55.825Z,30.67
2018-12-27T10:29:26.019Z,32.00
2018-12-27T10:31:55.958Z,34.40
2018-12-27T10:34:26.316Z,31.47
2018-12-27T10:36:56.209Z,34.40
2018-12-27T10:39:26.157Z,31.57
2018-12-27T10:41:56.134Z,35.07
2018-12-27T10:44:26.100Z,27.73
2018-12-27T10:46:55.937Z,34.43
2018-12-27T10:49:25.840Z,33.07
2018-12-27T10:51:56.286Z,31.23
2018-12-27T10:54:26.169Z,30.90
2018-12-27T10:56:56.916Z,29.77
2018-12-27T10:59:26.810Z,35.37
2018-12-27T11:01:56.801Z,25.50
2018-12-27T11:04:26.695Z,25.70
2018-12-27T11:06:57.023Z,27.87
2018-12-27T11:09:26.896Z,29.93
2018-12-27T11:11:58.041Z,22.27
2018-12-27T11:14:28.731Z,24.20
2018-12-27T11:16:58.623Z,27.47
2018-12-27T11:19:28.504Z,21.23
2018-12-27T11:21:58.340Z,25.47
2018-12-27T11:24:28.299Z,24.87
2018-12-27T11:26:58.276Z,25.30
2018-12-27T11:29:28.136Z,24.20
2018-12-27T11:31:58.005Z,28.67
2018-12-27T11:34:28.421Z,28.07
2018-12-27T11:36:58.796Z,25.43
2018-12-27T11:39:28.726Z,24.37
2018-12-27T11:41:58.567Z,26.10
2018-12-27T11:44:28.533Z,29.33
2018-12-27T11:46:58.500Z,23.73
2018-12-27T11:49:28.505Z,26.63
2018-12-27T11:51:58.343Z,25.33
2018-12-27T11:54:28.303Z,28.93
2018-12-27T11:56:58.299Z,31.00
2018-12-27T11:59:28.189Z,32.07
2018-12-27T12:01:58.055Z,28.33
2018-12-27T12:04:27.902Z,28.73
2018-12-27T12:06:58.089Z,24.47
2018-12-27T12:09:27.951Z,26.43
2018-12-27T12:11:58.087Z,35.17
2018-12-27T12:14:28.358Z,31.93
2018-12-27T12:16:58.238Z,31.80
2018-12-27T12:19:28.081Z,28.87
2018-12-27T12:21:58.409Z,32.20
2018-12-27T12:24:28.249Z,30.30
2018-12-27T12:26:58.249Z,28.67
2018-12-27T12:29:28.111Z,27.90
2018-12-27T12:31:57.990Z,30.20
2018-12-27T12:34:27.927Z,25.93
2018-12-27T12:36:57.834Z,31.40
2018-12-27T12:39:27.764Z,29.80
2018-12-27T12:41:57.625Z,28.63
2018-12-27T12:44:28.725Z,25.87
2018-12-27T12:46:58.626Z,27.90
2018-12-27T12:49:28.654Z,27.97
2018-12-27T12:51:58.608Z,25.37
2018-12-27T12:54:28.485Z,25.20
2018-12-27T12:56:58.716Z,29.33
2018-12-27T12:59:28.585Z,29.43
2018-12-27T13:01:58.451Z,30.30
2018-12-27T13:04:28.635Z,24.57
2018-12-27T13:06:58.534Z,27.63
2018-12-27T13:09:29.794Z,25.63
2018-12-27T13:11:59.664Z,24.40
2018-12-27T13:14:29.601Z,25.63
2018-12-27T13:16:59.581Z,22.57
2018-12-27T13:19:29.517Z,24.27
2018-12-27T13:21:59.396Z,22.40
2018-12-27T13:24:29.418Z,23.17
2018-12-27T13:26:59.731Z,27.70
2018-12-27T13:29:29.667Z,22.63
2018-12-27T13:31:59.774Z,30.07
2018-12-27T13:34:29.625Z,26.57
2018-12-27T13:36:59.613Z,23.67
2018-12-27T13:39:29.841Z,23.40
2018-12-27T13:41:59.864Z,20.50
2018-12-27T13:44:29.736Z,27.63
2018-12-27T13:46:59.654Z,22.73
2018-12-27T13:49:30.466Z,18.13
2018-12-27T13:52:00.827Z,22.93
2018-12-27T13:54:31.101Z,23.03
2018-12-27T13:57:01.339Z,17.70
2018-12-27T13:59:31.197Z,19.17
2018-12-27T14:02:01.486Z,14.60
2018-12-27T14:04:31.392Z,19.27
2018-12-27T14:07:01.609Z,15.73
2018-12-27T14:09:31.524Z,17.40
2018-12-27T14:12:01.503Z,15.83
2018-12-27T14:14:31.380Z,19.43
2018-12-27T14:17:01.268Z,15.57
2018-12-27T14:19:31.700Z,17.23
2018-12-27T14:22:01.688Z,17.67
2018-12-27T14:24:31.988Z,17.47
2018-12-27T14:27:02.198Z,17.87
2018-12-27T14:29:32.073Z,18.87
2018-12-27T14:32:01.924Z,16.57
2018-12-27T14:34:32.048Z,14.87
2018-12-27T14:37:02.278Z,14.13
2018-12-27T14:39:32.152Z,16.60
2018-12-27T14:42:02.004Z,20.40
2018-12-27T14:44:33.866Z,16.23
2018-12-27T14:47:04.167Z,15.30
2018-12-27T14:49:34.409Z,15.20
2018-12-27T14:52:04.282Z,15.77
2018-12-27T14:54:34.140Z,16.40
2018-12-27T14:57:03.988Z,16.27
2018-12-27T14:59:33.879Z,16.30
2018-12-27T15:02:04.089Z,16.90
2018-12-27T15:04:34.348Z,15.37
2018-12-27T15:07:04.196Z,16.30
2018-12-27T15:09:34.241Z,13.27
2018-12-27T15:12:04.101Z,14.60
2018-12-27T15:14:34.040Z,15.83
2018-12-27T15:17:04.337Z,12.90
2018-12-27T15:19:34.173Z,17.77
2018-12-27T15:22:04.148Z,16.53
2018-12-27T15:24:34.402Z,18.00
2018-12-27T15:27:04.268Z,17.30
2018-12-27T15:29:34.129Z,16.67
2018-12-27T15:32:03.977Z,16.20
2018-12-27T15:34:33.854Z,17.70
2018-12-27T15:37:03.718Z,18.00
2018-12-27T15:39:33.670Z,17.30
2018-12-27T15:42:03.511Z,20.03
2018-12-27T15:44:33.426Z,18.70
2018-12-27T15:47:03.773Z,18.70
2018-12-27T15:49:33.812Z,19.67
2018-12-27T15:52:03.766Z,22.47
2018-12-27T15:54:33.661Z,23.63
2018-12-27T15:57:03.849Z,19.43
2018-12-27T15:59:33.816Z,20.50
2018-12-27T16:02:04.017Z,21.87
2018-12-27T16:04:34.281Z,19.43
2018-12-27T16:07:04.203Z,21.90
2018-12-27T16:09:34.158Z,24.57
2018-12-27T16:12:04.016Z,20.73
2018-12-27T16:14:33.888Z,20.97
2018-12-27T16:17:04.385Z,22.17
2018-12-27T16:19:34.344Z,23.00
2018-12-27T16:22:04.297Z,31.83
2018-12-27T16:24:34.215Z,21.60
2018-12-27T16:27:04.463Z,28.93
2018-12-27T16:29:34.324Z,28.10
2018-12-27T16:32:04.381Z,22.60
2018-12-27T16:34:34.632Z,25.03
2018-12-27T16:37:09.024Z,22.63
2018-12-27T16:39:37.712Z,23.20
2018-12-27T16:42:07.581Z,18.73
2018-12-27T16:44:37.546Z,25.57
2018-12-27T16:47:07.400Z,24.80
2018-12-27T16:49:37.272Z,25.03
2018-12-27T16:52:07.133Z,21.47
2018-12-27T16:54:37.021Z,21.27
2018-12-27T16:57:06.883Z,21.10
2018-12-27T16:59:37.433Z,20.13
2018-12-27T17:02:07.372Z,28.50
2018-12-27T17:04:37.331Z,20.80
2018-12-27T17:07:07.176Z,25.70
2018-12-27T17:09:37.045Z,24.13
2018-12-27T17:12:07.401Z,24.00
2018-12-27T17:14:37.314Z,26.37
2018-12-27T17:17:07.324Z,28.00
2018-12-27T17:19:37.629Z,28.20
2018-12-27T17:22:07.479Z,27.53
2018-12-27T17:24:37.413Z,26.67
2018-12-27T17:27:07.344Z,26.80
2018-12-27T17:29:37.277Z,25.03
2018-12-27T17:32:07.137Z,26.43
2018-12-27T17:34:37.110Z,23.87
2018-12-27T17:37:07.103Z,26.80
2018-12-27T17:39:37.452Z,27.57
2018-12-27T17:42:07.434Z,22.97
2018-12-27T17:44:37.369Z,21.70
2018-12-27T17:47:07.620Z,20.40
2018-12-27T17:49:37.898Z,21.37
2018-12-27T17:52:07.869Z,23.50
2018-12-27T17:54:37.721Z,19.53
2018-12-27T17:57:07.606Z,16.70
2018-12-27T17:59:37.444Z,16.20
2018-12-27T18:02:07.793Z,21.27
2018-12-27T18:04:37.727Z,20.77
2018-12-27T18:07:07.695Z,20.70
2018-12-27T18:09:37.577Z,24.17
2018-12-27T18:12:07.558Z,20.70
2018-12-27T18:14:38.242Z,20.80
2018-12-27T18:17:08.307Z,26.20
2018-12-27T18:19:38.180Z,26.47
2018-12-27T18:22:08.049Z,24.57
2018-12-27T18:24:38.189Z,29.63
2018-12-27T18:27:08.146Z,28.80
2018-12-27T18:29:38.015Z,27.80
2018-12-27T18:32:08.049Z,36.30
2018-12-27T18:34:38.209Z,24.13
2018-12-27T18:37:08.086Z,24.20
2018-12-27T18:39:37.933Z,21.23
2018-12-27T18:42:07.861Z,24.57
2018-12-27T18:44:38.093Z,19.57
2018-12-27T18:47:08.000Z,19.77
2018-12-27T18:49:37.870Z,19.33
2018-12-27T18:52:07.757Z,20.37
2018-12-27T18:54:37.635Z,18.87
2018-12-27T18:57:07.515Z,33.00
2018-12-27T18:59:37.373Z,30.93
2018-12-27T19:02:07.268Z,21.97
2018-12-27T19:04:38.538Z,27.10
2018-12-27T19:07:08.554Z,18.53
2018-12-27T19:09:38.419Z,23.07
2018-12-27T19:13:00.473Z,56.87
2018-12-27T19:15:31.889Z,23.50
2018-12-27T19:18:11.170Z,20.70
2018-12-27T19:20:42.215Z,22.70
2018-12-27T19:23:18.169Z,29.13
2018-12-27T19:25:48.170Z,26.27
2018-12-27T19:28:18.041Z,38.10
2018-12-27T19:30:47.888Z,26.13
2018-12-27T19:33:17.858Z,31.73
2018-12-27T19:35:47.799Z,35.20
2018-12-27T19:38:17.701Z,22.40
2018-12-27T19:40:47.588Z,25.07
2018-12-27T19:43:17.510Z,19.57
2018-12-27T19:45:47.386Z,20.60
2018-12-27T19:48:17.287Z,23.70
2018-12-27T19:50:47.173Z,24.20
2018-12-27T19:53:17.137Z,29.23
2018-12-27T19:55:47.014Z,22.20
2018-12-27T19:58:16.957Z,28.07
2018-12-27T20:00:47.716Z,22.00
2018-12-27T20:03:17.608Z,21.67
2018-12-27T20:05:47.469Z,23.27
2018-12-27T20:08:17.436Z,25.23
2018-12-27T20:10:47.289Z,20.57
2018-12-27T20:13:17.930Z,20.27
2018-12-27T20:15:48.663Z,26.70
2018-12-27T20:18:18.549Z,25.20
2018-12-27T20:20:49.209Z,21.67
2018-12-27T20:23:19.268Z,24.80
2018-12-27T20:25:49.212Z,32.67
2018-12-27T20:28:19.289Z,22.07
2018-12-27T20:30:49.187Z,22.40
2018-12-27T20:33:20.173Z,27.53
2018-12-27T20:35:50.253Z,27.67
2018-12-27T20:38:20.151Z,27.73
2018-12-27T20:40:50.186Z,21.60
2018-12-27T20:43:22.197Z,24.93
2018-12-27T20:45:52.544Z,32.93
2018-12-27T20:48:22.500Z,38.23
2018-12-27T20:50:52.487Z,29.73
2018-12-27T20:53:22.834Z,40.73
2018-12-27T20:55:52.697Z,42.93
2018-12-27T20:58:22.669Z,33.40
2018-12-27T21:00:52.617Z,31.97
2018-12-27T21:03:22.560Z,29.80
2018-12-27T21:05:52.429Z,35.93
2018-12-27T21:08:22.420Z,33.17
2018-12-27T21:10:52.766Z,31.83
2018-12-27T21:13:22.829Z,31.63
2018-12-27T21:15:52.374Z,36.50
2018-12-27T21:18:22.313Z,37.80
2018-12-27T21:20:52.267Z,36.63
2018-12-27T21:23:22.125Z,37.80
2018-12-27T21:25:52.682Z,46.20
2018-12-27T21:28:22.606Z,43.73
2018-12-27T21:30:52.571Z,35.03
2018-12-27T21:33:22.430Z,29.70
2018-12-27T21:35:52.301Z,34.73
2018-12-27T21:38:22.167Z,37.83
2018-12-27T21:40:52.151Z,33.57
2018-12-27T21:43:21.990Z,30.53
2018-12-27T21:45:53.024Z,34.83
2018-12-27T21:48:23.062Z,34.23
2018-12-27T21:50:53.115Z,30.50
2018-12-27T21:53:23.070Z,26.83
2018-12-27T21:55:54.529Z,27.47
2018-12-27T21:58:24.380Z,29.53
2018-12-27T22:00:54.338Z,29.83
2018-12-27T22:03:24.381Z,30.10
2018-12-27T22:05:54.559Z,27.17
2018-12-27T22:08:28.506Z,34.20
2018-12-27T22:10:56.744Z,25.73
2018-12-27T22:13:26.960Z,26.33
2018-12-27T22:15:57.546Z,26.77
2018-12-27T22:18:28.176Z,30.07
2018-12-27T22:20:58.072Z,25.90
2018-12-27T22:23:27.933Z,27.57
2018-12-27T22:25:58.241Z,29.70
2018-12-27T22:28:28.936Z,28.17
2018-12-27T22:30:59.140Z,24.90
2018-12-27T22:33:29.068Z,29.40
2018-12-27T22:35:58.959Z,30.00
2018-12-27T22:38:35.456Z,24.87
2018-12-27T22:41:00.484Z,29.60
2018-12-27T22:43:31.053Z,31.90
2018-12-27T22:46:00.965Z,30.43
2018-12-27T22:48:31.892Z,29.10
2018-12-27T22:51:02.953Z,28.10
2018-12-27T22:53:33.191Z,30.97
2018-12-27T22:56:03.272Z,27.87
2018-12-27T22:58:33.216Z,25.07
2018-12-27T23:01:03.385Z,31.03
2018-12-27T23:03:33.305Z,25.40
2018-12-27T23:06:03.680Z,29.13
2018-12-27T23:08:33.549Z,29.57
2018-12-27T23:11:03.721Z,28.90
2018-12-27T23:13:34.120Z,31.70
2018-12-27T23:16:04.063Z,25.73
2018-12-27T23:18:34.005Z,33.90
2018-12-27T23:21:04.333Z,32.93
2018-12-27T23:23:34.209Z,37.57
2018-12-27T23:26:04.096Z,24.10
2018-12-27T23:28:33.985Z,24.80
2018-12-27T23:31:04.042Z,28.50
2018-12-27T23:33:33.991Z,27.53
2018-12-27T23:36:03.965Z,29.13
2018-12-27T23:38:34.295Z,27.80
2018-12-27T23:41:04.209Z,26.63
2018-12-27T23:43:34.546Z,29.57
2018-12-27T23:46:04.487Z,30.00
2018-12-27T23:48:34.366Z,34.13
2018-12-27T23:51:04.316Z,32.10
2018-12-27T23:53:35.326Z,33.13
2018-12-27T23:56:05.184Z,31.77
2018-12-27T23:58:35.055Z,31.33
